May 17, 2022

Time Code Weather Temp. Visibility Clouds Wind METAR/SPECI
6:00 am
V
43 °F 9 mi - 320°   320° 11 17 kt METAR CYBW 171200Z AUTO 32011G17KT 9SM CLR 06/M00 A2993 RMK SLP146
5:00 am
V
46 °F 9 mi 7,100 ft 340°   340° 13 kt METAR CYBW 171100Z AUTO 34013KT 9SM BKN071 OVC082 08/01 A2992 RMK SLP137 DENSITY ALT 4100FT
4:00 am
V
48 °F 9 mi 9,600 ft 320°   320° 10 kt METAR CYBW 171000Z AUTO 32010KT 9SM OVC096 09/M00 A2989 RMK SLP127 DENSITY ALT 4200FT
3:17 am
V
48 °F 9 mi 11,000 ft 330°   330° 14 kt METAR CYBW 170917Z AUTO 33014KT 9SM OVC110 09/01 A2987 RMK WSHFT AT 0903Z PRESRR SLP133 DENSITY ALT 4300FT
3:00 am
V
48 °F 9 mi 11,000 ft 270°   270° 13 kt METAR CYBW 170900Z AUTO 27013KT 9SM OVC110 09/01 A2984 RMK SLP109 DENSITY ALT 4300FT
2:00 am
V
43 °F 9 mi - 350°   350° 7 kt METAR CYBW 170800Z AUTO 35007KT 9SM CLR 06/00 A2984 RMK SLP112 DENSITY ALT 4000FT
1:00 am
V
48 °F 9 mi 14,000 ft 280°   280° 9 15 kt METAR CYBW 170700Z AUTO 28009G15KT 9SM SCT120 BKN140 09/M01 A2982 RMK SLP105 DENSITY ALT 4300FT
12:00 am
V
50 °F 9 mi 15,000 ft 270°   270° 13 kt METAR CYBW 170600Z AUTO 27013KT 9SM OVC150 10/01 A2981 RMK SLP099 DENSITY ALT 4500FT

May 16, 2022

Time Code Weather Temp. Visibility Clouds Wind METAR/SPECI
11:00 pm
V
52 °F 9 mi 14,000 ft 280°   280° 19 24 kt METAR CYBW 170500Z AUTO 28019G24KT 9SM BKN140 BKN160 11/01 A2979 RMK SLP092 DENSITY ALT 4600FT
10:00 pm
V
54 °F 9 mi - 260°   260° 23 30 kt METAR CYBW 170400Z AUTO 26023G30KT 9SM FEW130 12/01 A2979 RMK SLP091 DENSITY ALT 4700FT
9:59 pm
V
54 °F 9 mi - 260°   260° 23 30 kt METAR CYBW 170359Z AUTO 26023G30KT 9SM FEW130 12/01 A2979 RMK SLP095 DENSITY ALT 4700FT
9:00 pm
V
55 °F 9 mi - 260°   260° 12 17 kt METAR CYBW 170300Z AUTO 26012G17KT 9SM CLR 13/M00 A2978 RMK SLP087 DENSITY ALT 4800FT
8:00 pm
V
63 °F 9 mi 21,000 ft 280°   280° 14 19 kt METAR CYBW 170200Z AUTO 28014G19KT 9SM BKN210 BKN230 17/M02 A2976 RMK SLP079 DENSITY ALT 5300FT
7:00 pm
V
64 °F 9 mi - 280°   280° 14 20 kt METAR CYBW 170100Z AUTO 28014G20KT 9SM SCT230 18/M02 A2976 RMK SLP084 DENSITY ALT 5400FT
6:00 pm
V
66 °F 9 mi - 270°   270° 17 23 kt METAR CYBW 170000Z AUTO 27017G23KT 210V280 9SM CLR 19/M01 A2976 RMK SLP090 DENSITY ALT 5500FT
5:00 pm
V
68 °F 9 mi 21,000 ft 250°   250° 12 23 kt METAR CYBW 162300Z AUTO 25012G23KT 9SM SCT180 BKN210 20/M02 A2976 RMK SLP086 DENSITY ALT 5600FT
4:00 pm
V
66 °F 9 mi 19,000 ft 300°   300° 9 16 kt METAR CYBW 162200Z AUTO 30009G16KT 250V320 9SM OVC190 19/M03 A2977 RMK SLP090 DENSITY ALT 5500FT
3:00 pm
V
66 °F 9 mi 22,000 ft 270°   270° 16 25 kt METAR CYBW 162100Z AUTO 27016G25KT 9SM BKN220 19/M03 A2978 RMK SLP091 DENSITY ALT 5500FT
2:58 pm
V
66 °F 9 mi 22,000 ft 280°   280° 20 25 kt METAR CYBW 162058Z AUTO 28020G25KT 9SM BKN220 19/M03 A2978 RMK SLP070 DENSITY ALT 5600FT
2:00 pm
V
64 °F 9 mi - 270°   270° 10 19 kt METAR CYBW 162000Z AUTO 27010G19KT 220V300 9SM FEW086 18/M01 A2980 RMK SLP095 DENSITY ALT 5400FT
1:00 pm
V
63 °F 9 mi - 280°   280° 13 24 kt METAR CYBW 161900Z AUTO 28013G24KT 9SM FEW240 17/M03 A2981 RMK SLP101 DENSITY ALT 5200FT
12:00 pm
V
61 °F 9 mi - 270°   270° 13 23 kt METAR CYBW 161800Z AUTO 27013G23KT 9SM SCT076 16/M03 A2981 RMK SLP100 DENSITY ALT 5100FT
11:00 am
V
61 °F 9 mi 7,600 ft 260°   260° 14 kt METAR CYBW 161700Z AUTO 26014KT 9SM BKN076 16/M01 A2981 RMK SLP100 DENSITY ALT 5100FT
10:00 am
V
61 °F 9 mi - 270°   270° 18 25 kt METAR CYBW 161600Z AUTO 27018G25KT 9SM FEW240 16/M01 A2982 RMK SLP099 DENSITY ALT 5100FT
9:00 am
V
57 °F 9 mi - 270°   270° 14 19 kt METAR CYBW 161500Z AUTO 27014G19KT 9SM CLR 14/02 A2982 RMK SLP099 DENSITY ALT 4900FT
8:00 am
V
54 °F 9 mi - 280°   280° 10 16 kt METAR CYBW 161400Z AUTO 28010G16KT 9SM CLR 12/03 A2983 RMK SLP104 DENSITY ALT 4600FT
7:00 am
V
45 °F 9 mi - 270°   270° 7 kt METAR CYBW 161300Z AUTO 27007KT 9SM CLR 07/02 A2983 RMK SLP112 DENSITY ALT 4000FT
6:00 am
V
37 °F 9 mi - 310°   310° 10 kt METAR CYBW 161200Z AUTO 31010KT 9SM CLR 03/00 A2982 RMK SLP113
5:00 am
V
41 °F 9 mi - 320°   320° 7 kt METAR CYBW 161100Z AUTO 32007KT 9SM CLR 05/01 A2983 RMK SLP112
4:00 am
V
43 °F 9 mi - 290°   290° 4 kt METAR CYBW 161000Z AUTO 29004KT 230V300 9SM CLR 06/01 A2982 RMK SLP108 DENSITY ALT 4000FT
3:00 am
V
43 °F 9 mi - 300°   300° 6 kt METAR CYBW 160900Z AUTO 30006KT 9SM CLR 06/01 A2982 RMK SLP108 DENSITY ALT 4000FT
2:00 am
V
48 °F 9 mi 17,000 ft 290°   290° 11 kt METAR CYBW 160800Z AUTO 29011KT 9SM BKN170 BKN190 09/02 A2983 RMK SLP110 DENSITY ALT 4300FT
1:00 am
V
46 °F 9 mi - 310°   310° 7 kt METAR CYBW 160700Z AUTO 31007KT 9SM SCT140 08/01 A2982 RMK SLP109 DENSITY ALT 4200FT
12:00 am
V
50 °F 9 mi 9,600 ft 290°   290° 9 kt METAR CYBW 160600Z AUTO 29009KT 9SM BKN096 10/01 A2983 RMK SLP112 DENSITY ALT 4400FT

May 15, 2022

Time Code Weather Temp. Visibility Clouds Wind METAR/SPECI
11:00 pm
V
54 °F 9 mi 8,100 ft 290°   290° 5 kt METAR CYBW 160500Z AUTO 29005KT 9SM OVC081 12/01 A2985 RMK SLP115 DENSITY ALT 4600FT
10:00 pm
V
55 °F 9 mi 10,000 ft 330°   330° 5 kt METAR CYBW 160400Z AUTO 33005KT 300V020 9SM BKN100 BKN170 13/M00 A2985 RMK SLP116 DENSITY ALT 4700FT
9:00 pm
V
57 °F 9 mi 9,100 ft 260°   260° 5 15 kt METAR CYBW 160300Z AUTO 26005G15KT 250V010 9SM OVC091 14/M01 A2987 RMK SLP120 DENSITY ALT 4900FT
8:00 pm
V
59 °F 9 mi 10,000 ft 350°   350° 5 kt METAR CYBW 160200Z AUTO 35005KT 9SM FEW081 BKN100 OVC120 15/M01 A2987 RMK SLP126 DENSITY ALT 5000FT
7:00 pm
V
61 °F 9 mi - Var   Var 2 kt METAR CYBW 160100Z AUTO VRB02KT 9SM FEW130 16/M02 A2988 RMK SLP136 DENSITY ALT 5100FT
6:00 pm
V
63 °F 9 mi - Var   Var 7 kt METAR CYBW 160000Z AUTO VRB07KT 9SM FEW091 17/M02 A2990 RMK SLP145 DENSITY ALT 5200FT
5:00 pm
V
63 °F 9 mi 12,000 ft 300°   300° 8 17 kt METAR CYBW 152300Z AUTO 30008G17KT 260V330 9SM SCT086 OVC120 17/M03 A2992 RMK SLP149 DENSITY ALT 5100FT
4:00 pm
V
63 °F 9 mi 12,000 ft Var   Var 6 16 kt METAR CYBW 152200Z AUTO VRB06G16KT 9SM SCT091 BKN120 17/M04 A2994 RMK SLP158 DENSITY ALT 5100FT
3:00 pm
V
61 °F 9 mi 8,600 ft Var   Var 7 20 kt METAR CYBW 152100Z AUTO VRB07G20KT 9SM BKN086 16/M05 A2996 RMK SLP166 DENSITY ALT 5000FT
2:00 pm
V
59 °F 9 mi - 100°   100° 5 kt METAR CYBW 152000Z AUTO 10005KT 060V180 9SM CLR 15/M05 A2997 RMK SLP171 DENSITY ALT 4900FT
1:00 pm
V
59 °F 9 mi - 190°   190° 8 17 kt METAR CYBW 151900Z AUTO 19008G17KT 140V290 9SM CLR 15/M05 A3000 RMK SLP180 DENSITY ALT 4800FT
12:00 pm
V
57 °F 9 mi - 280°   280° 5 18 kt METAR CYBW 151800Z AUTO 28005G18KT 210V010 9SM CLR 14/M06 A3002 RMK SLP187 DENSITY ALT 4600FT
11:00 am
V
55 °F 9 mi - 290°   290° 12 20 kt METAR CYBW 151700Z AUTO 29012G20KT 9SM CLR 13/M06 A3003 RMK SLP188 DENSITY ALT 4500FT
10:00 am
V
54 °F 9 mi - 270°   270° 13 18 kt METAR CYBW 151600Z AUTO 27013G18KT 9SM FEW170 12/M06 A3004 RMK SLP192 DENSITY ALT 4400FT
9:00 am
V
52 °F 9 mi - 280°   280° 11 16 kt METAR CYBW 151500Z AUTO 28011G16KT 9SM CLR 11/M05 A3004 RMK SLP190 DENSITY ALT 4300FT
8:00 am
V
46 °F 9 mi - 330°   330° 3 kt METAR CYBW 151400Z AUTO 33003KT 9SM FEW140 08/M02 A3005 RMK SLP195
7:00 am
V
39 °F 9 mi - 310°   310° 5 kt METAR CYBW 151300Z AUTO 31005KT 9SM SCT170 04/M03 A3005 RMK SLP199
Older data

Download our app

Easy access to all aviation weather on your mobile phone and tablet.
With many features not available on the website, like offline support and a personal airport list.